sensor_id;sensor_type;location;lat;lon;timestamp;pressure;altitude;pressure_sealevel;temperature;humidity
11395;BME280;5753;54.402;10.220;2023-06-10T00:02:08;102117.31;;;23.81;46.34
11395;BME280;5753;54.402;10.220;2023-06-10T00:04:34;102115.50;;;23.83;46.07
11395;BME280;5753;54.402;10.220;2023-06-10T00:07:03;102120.03;;;24.65;44.47
11395;BME280;5753;54.402;10.220;2023-06-10T00:09:30;102120.53;;;23.96;45.79
11395;BME280;5753;54.402;10.220;2023-06-10T00:11:56;102114.69;;;23.80;46.15
11395;BME280;5753;54.402;10.220;2023-06-10T00:14:25;102120.13;;;24.17;45.23
11395;BME280;5753;54.402;10.220;2023-06-10T00:16:51;102110.88;;;23.45;47.34
11395;BME280;5753;54.402;10.220;2023-06-10T00:19:18;102114.63;;;24.29;44.89
11395;BME280;5753;54.402;10.220;2023-06-10T00:21:44;102119.81;;;23.37;47.40
11395;BME280;5753;54.402;10.220;2023-06-10T00:24:11;102117.47;;;24.62;44.57
11395;BME280;5753;54.402;10.220;2023-06-10T00:26:38;102108.13;;;23.53;46.66
11395;BME280;5753;54.402;10.220;2023-06-10T00:29:05;102114.56;;;23.37;47.27
11395;BME280;5753;54.402;10.220;2023-06-10T00:31:31;102102.28;;;24.31;45.23
11395;BME280;5753;54.402;10.220;2023-06-10T00:33:57;102110.88;;;23.47;46.27
11395;BME280;5753;54.402;10.220;2023-06-10T00:36:24;102105.78;;;23.87;45.67
11395;BME280;5753;54.402;10.220;2023-06-10T00:38:50;102111.47;;;23.64;46.00
11395;BME280;5753;54.402;10.220;2023-06-10T00:41:16;102109.50;;;21.89;49.04
11395;BME280;5753;54.402;10.220;2023-06-10T00:43:43;102107.16;;;23.60;46.28
11395;BME280;5753;54.402;10.220;2023-06-10T00:46:10;102102.81;;;23.58;45.66
11395;BME280;5753;54.402;10.220;2023-06-10T00:48:38;102103.41;;;23.73;45.55
11395;BME280;5753;54.402;10.220;2023-06-10T00:51:05;102104.16;;;22.69;47.76
11395;BME280;5753;54.402;10.220;2023-06-10T00:53:32;102105.88;;;23.82;44.99
11395;BME280;5753;54.402;10.220;2023-06-10T00:55:58;102114.25;;;24.46;43.40
11395;BME280;5753;54.402;10.220;2023-06-10T00:58:25;102106.75;;;22.00;48.79
11395;BME280;5753;54.402;10.220;2023-06-10T01:00:52;102105.38;;;23.61;45.07
11395;BME280;5753;54.402;10.220;2023-06-10T01:03:19;102108.78;;;24.13;43.97
11395;BME280;5753;54.402;10.220;2023-06-10T01:05:52;102106.72;;;23.84;44.52
11395;BME280;5753;54.402;10.220;2023-06-10T01:10:59;102113.16;;;23.14;46.39
11395;BME280;5753;54.402;10.220;2023-06-10T01:13:26;102108.19;;;23.98;44.03
11395;BME280;5753;54.402;10.220;2023-06-10T01:15:55;102089.00;;;23.43;45.12
11395;BME280;5753;54.402;10.220;2023-06-10T01:18:22;102096.38;;;23.23;45.90
11395;BME280;5753;54.402;10.220;2023-06-10T01:20:49;102096.00;;;22.26;48.02
11395;BME280;5753;54.402;10.220;2023-06-10T01:23:16;102101.16;;;23.98;43.95
11395;BME280;5753;54.402;10.220;2023-06-10T01:25:47;102098.22;;;23.18;45.42
11395;BME280;5753;54.402;10.220;2023-06-10T01:31:06;102103.44;;;23.19;46.66
11395;BME280;5753;54.402;10.220;2023-06-10T01:33:41;102104.50;;;23.60;45.57
11395;BME280;5753;54.402;10.220;2023-06-10T01:36:09;102108.69;;;23.73;45.72
11395;BME280;5753;54.402;10.220;2023-06-10T01:38:44;102113.63;;;23.39;46.20
11395;BME280;5753;54.402;10.220;2023-06-10T01:41:12;102104.28;;;23.74;45.77
11395;BME280;5753;54.402;10.220;2023-06-10T01:43:39;102104.34;;;23.71;45.63
11395;BME280;5753;54.402;10.220;2023-06-10T01:46:06;102101.97;;;23.54;46.03
11395;BME280;5753;54.402;10.220;2023-06-10T01:48:33;102111.03;;;23.87;45.17
11395;BME280;5753;54.402;10.220;2023-06-10T01:51:00;102104.69;;;23.97;44.79
11395;BME280;5753;54.402;10.220;2023-06-10T01:53:26;102108.44;;;23.85;45.44
11395;BME280;5753;54.402;10.220;2023-06-10T01:55:52;102098.28;;;23.67;45.39
11395;BME280;5753;54.402;10.220;2023-06-10T01:58:18;102095.63;;;24.12;43.89
11395;BME280;5753;54.402;10.220;2023-06-10T02:00:44;102090.66;;;23.49;45.56
11395;BME280;5753;54.402;10.220;2023-06-10T02:03:10;102089.94;;;24.33;43.26
11395;BME280;5753;54.402;10.220;2023-06-10T02:05:36;102098.38;;;23.06;46.90
11395;BME280;5753;54.402;10.220;2023-06-10T02:08:02;102093.66;;;23.78;45.42
11395;BME280;5753;54.402;10.220;2023-06-10T02:10:28;102101.47;;;23.32;45.92
11395;BME280;5753;54.402;10.220;2023-06-10T02:12:54;102109.44;;;23.28;46.26
11395;BME280;5753;54.402;10.220;2023-06-10T02:15:21;102102.06;;;23.48;45.36
11395;BME280;5753;54.402;10.220;2023-06-10T02:17:47;102103.53;;;23.67;45.15
11395;BME280;5753;54.402;10.220;2023-06-10T02:20:14;102099.34;;;23.00;46.68
11395;BME280;5753;54.402;10.220;2023-06-10T02:22:41;102103.16;;;22.12;49.13
11395;BME280;5753;54.402;10.220;2023-06-10T02:25:07;102103.56;;;23.64;45.77
11395;BME280;5753;54.402;10.220;2023-06-10T02:27:33;102102.00;;;24.00;44.64
11395;BME280;5753;54.402;10.220;2023-06-10T02:30:00;102108.72;;;23.16;45.92
11395;BME280;5753;54.402;10.220;2023-06-10T02:32:26;102104.47;;;24.08;44.76
11395;BME280;5753;54.402;10.220;2023-06-10T02:34:52;102108.44;;;23.85;44.32
11395;BME280;5753;54.402;10.220;2023-06-10T02:37:19;102109.75;;;22.46;47.69
11395;BME280;5753;54.402;10.220;2023-06-10T02:39:46;102109.06;;;23.49;45.13
11395;BME280;5753;54.402;10.220;2023-06-10T02:42:12;102118.69;;;24.01;44.46
11395;BME280;5753;54.402;10.220;2023-06-10T02:44:38;102123.59;;;23.73;44.81
11395;BME280;5753;54.402;10.220;2023-06-10T02:47:05;102115.44;;;23.36;45.26
11395;BME280;5753;54.402;10.220;2023-06-10T02:49:31;102114.34;;;22.95;46.38
11395;BME280;5753;54.402;10.220;2023-06-10T02:51:57;102114.09;;;24.10;44.27
11395;BME280;5753;54.402;10.220;2023-06-10T02:54:24;102108.94;;;23.58;45.15
11395;BME280;5753;54.402;10.220;2023-06-10T02:56:51;102110.28;;;23.80;44.56
11395;BME280;5753;54.402;10.220;2023-06-10T02:59:18;102112.34;;;23.63;45.16
11395;BME280;5753;54.402;10.220;2023-06-10T03:01:45;102113.13;;;24.16;43.63
11395;BME280;5753;54.402;10.220;2023-06-10T03:04:11;102106.50;;;23.95;44.60
11395;BME280;5753;54.402;10.220;2023-06-10T03:06:39;102116.25;;;24.36;43.48
11395;BME280;5753;54.402;10.220;2023-06-10T03:09:07;102107.44;;;22.88;46.92
11395;BME280;5753;54.402;10.220;2023-06-10T03:11:33;102105.69;;;22.87;47.29
11395;BME280;5753;54.402;10.220;2023-06-10T03:13:59;102113.28;;;23.05;46.29
11395;BME280;5753;54.402;10.220;2023-06-10T03:16:25;102115.97;;;24.48;43.27
11395;BME280;5753;54.402;10.220;2023-06-10T03:18:53;102117.31;;;22.71;46.56
11395;BME280;5753;54.402;10.220;2023-06-10T03:21:19;102109.06;;;22.97;47.05
11395;BME280;5753;54.402;10.220;2023-06-10T03:23:45;102108.16;;;22.35;47.96
11395;BME280;5753;54.402;10.220;2023-06-10T03:26:12;102115.84;;;23.65;45.05
11395;BME280;5753;54.402;10.220;2023-06-10T03:28:40;102117.31;;;22.71;47.26
11395;BME280;5753;54.402;10.220;2023-06-10T03:31:07;102121.75;;;23.78;45.06
11395;BME280;5753;54.402;10.220;2023-06-10T03:33:33;102115.53;;;22.73;47.24
11395;BME280;5753;54.402;10.220;2023-06-10T03:35:59;102110.66;;;23.59;45.20
11395;BME280;5753;54.402;10.220;2023-06-10T03:38:25;102121.00;;;23.71;45.27
11395;BME280;5753;54.402;10.220;2023-06-10T03:40:51;102120.72;;;23.86;44.41
11395;BME280;5753;54.402;10.220;2023-06-10T03:43:17;102121.56;;;23.38;46.38
11395;BME280;5753;54.402;10.220;2023-06-10T03:45:43;102117.69;;;24.49;43.73
11395;BME280;5753;54.402;10.220;2023-06-10T03:48:10;102120.09;;;23.72;45.05
11395;BME280;5753;54.402;10.220;2023-06-10T03:50:36;102121.72;;;23.79;44.98
11395;BME280;5753;54.402;10.220;2023-06-10T03:53:03;102123.75;;;22.47;47.51
11395;BME280;5753;54.402;10.220;2023-06-10T03:55:29;102121.72;;;23.79;44.83
11395;BME280;5753;54.402;10.220;2023-06-10T03:57:55;102119.91;;;23.31;45.86
11395;BME280;5753;54.402;10.220;2023-06-10T04:00:21;102112.28;;;23.14;45.59
11395;BME280;5753;54.402;10.220;2023-06-10T04:02:48;102113.53;;;23.45;45.26
11395;BME280;5753;54.402;10.220;2023-06-10T04:05:19;102125.03;;;24.35;43.85
11395;BME280;5753;54.402;10.220;2023-06-10T04:07:48;102124.81;;;23.52;45.77
11395;BME280;5753;54.402;10.220;2023-06-10T04:10:15;102129.03;;;23.62;45.06
11395;BME280;5753;54.402;10.220;2023-06-10T04:12:42;102125.56;;;24.08;44.58
11395;BME280;5753;54.402;10.220;2023-06-10T04:15:08;102127.44;;;22.32;47.54
11395;BME280;5753;54.402;10.220;2023-06-10T04:17:35;102131.25;;;22.76;47.25
11395;BME280;5753;54.402;10.220;2023-06-10T04:20:01;102131.56;;;23.70;45.18
11395;BME280;5753;54.402;10.220;2023-06-10T04:22:29;102128.00;;;23.72;45.23
11395;BME280;5753;54.402;10.220;2023-06-10T04:24:55;102140.03;;;23.85;45.09
11395;BME280;5753;54.402;10.220;2023-06-10T04:27:21;102137.94;;;24.03;44.67
11395;BME280;5753;54.402;10.220;2023-06-10T04:29:47;102137.06;;;24.48;43.52
11395;BME280;5753;54.402;10.220;2023-06-10T04:32:13;102140.13;;;23.29;46.91
11395;BME280;5753;54.402;10.220;2023-06-10T04:34:39;102141.19;;;24.18;44.61
11395;BME280;5753;54.402;10.220;2023-06-10T04:37:06;102133.91;;;24.31;44.53
11395;BME280;5753;54.402;10.220;2023-06-10T04:39:32;102138.16;;;22.86;46.54
11395;BME280;5753;54.402;10.220;2023-06-10T04:41:58;102138.94;;;24.84;43.76
11395;BME280;5753;54.402;10.220;2023-06-10T04:44:24;102130.50;;;25.42;42.07
11395;BME280;5753;54.402;10.220;2023-06-10T04:46:50;102133.44;;;24.93;43.44
11395;BME280;5753;54.402;10.220;2023-06-10T04:49:16;102132.13;;;24.33;44.46
11395;BME280;5753;54.402;10.220;2023-06-10T04:51:42;102135.31;;;25.26;42.08
11395;BME280;5753;54.402;10.220;2023-06-10T04:54:09;102129.91;;;24.54;43.40
11395;BME280;5753;54.402;10.220;2023-06-10T04:56:35;102128.47;;;25.53;41.86
11395;BME280;5753;54.402;10.220;2023-06-10T04:59:01;102122.56;;;24.28;44.31
11395;BME280;5753;54.402;10.220;2023-06-10T05:01:27;102125.44;;;26.02;41.20
11395;BME280;5753;54.402;10.220;2023-06-10T05:03:53;102134.88;;;25.09;43.04
11395;BME280;5753;54.402;10.220;2023-06-10T05:06:19;102141.97;;;25.77;41.16
11395;BME280;5753;54.402;10.220;2023-06-10T05:08:46;102132.53;;;25.32;41.72
11395;BME280;5753;54.402;10.220;2023-06-10T05:11:13;102133.72;;;25.55;42.09
11395;BME280;5753;54.402;10.220;2023-06-10T05:13:39;102131.31;;;26.12;40.55
11395;BME280;5753;54.402;10.220;2023-06-10T05:16:06;102132.41;;;26.93;39.55
11395;BME280;5753;54.402;10.220;2023-06-10T05:18:33;102127.88;;;26.40;40.15
11395;BME280;5753;54.402;10.220;2023-06-10T05:20:59;102132.78;;;25.57;42.31
11395;BME280;5753;54.402;10.220;2023-06-10T05:23:25;102136.19;;;25.27;42.76
11395;BME280;5753;54.402;10.220;2023-06-10T05:25:51;102133.56;;;26.26;40.21
11395;BME280;5753;54.402;10.220;2023-06-10T05:28:17;102131.31;;;26.12;41.30
11395;BME280;5753;54.402;10.220;2023-06-10T05:30:44;102128.78;;;26.97;39.10
11395;BME280;5753;54.402;10.220;2023-06-10T05:33:10;102134.53;;;23.47;45.57
11395;BME280;5753;54.402;10.220;2023-06-10T05:35:36;102134.16;;;24.17;44.69
11395;BME280;5753;54.402;10.220;2023-06-10T05:38:02;102133.19;;;25.40;42.54
11395;BME280;5753;54.402;10.220;2023-06-10T05:40:28;102125.22;;;25.06;42.65
11395;BME280;5753;54.402;10.220;2023-06-10T05:42:55;102129.47;;;24.75;44.06
11395;BME280;5753;54.402;10.220;2023-06-10T05:45:21;102124.72;;;25.28;42.67
11395;BME280;5753;54.402;10.220;2023-06-10T05:47:47;102130.75;;;23.66;45.58
11395;BME280;5753;54.402;10.220;2023-06-10T05:50:13;102115.88;;;25.97;42.08
11395;BME280;5753;54.402;10.220;2023-06-10T05:52:39;102127.41;;;26.56;40.78
11395;BME280;5753;54.402;10.220;2023-06-10T05:55:08;102127.16;;;25.35;42.73
11395;BME280;5753;54.402;10.220;2023-06-10T05:57:35;102131.25;;;25.13;42.81
11395;BME280;5753;54.402;10.220;2023-06-10T06:00:01;102125.75;;;26.21;41.51
11395;BME280;5753;54.402;10.220;2023-06-10T06:02:27;102137.16;;;24.84;43.54
11395;BME280;5753;54.402;10.220;2023-06-10T06:04:53;102126.91;;;25.80;42.12
11395;BME280;5753;54.402;10.220;2023-06-10T06:07:19;102126.88;;;26.73;40.51
11395;BME280;5753;54.402;10.220;2023-06-10T06:09:47;102129.81;;;26.64;40.82
11395;BME280;5753;54.402;10.220;2023-06-10T06:12:13;102129.72;;;26.38;41.10
11395;BME280;5753;54.402;10.220;2023-06-10T06:14:39;102133.97;;;25.80;41.99
11395;BME280;5753;54.402;10.220;2023-06-10T06:17:08;102131.91;;;25.91;41.91
11395;BME280;5753;54.402;10.220;2023-06-10T06:19:34;102126.88;;;26.44;40.20
11395;BME280;5753;54.402;10.220;2023-06-10T06:22:00;102130.16;;;27.64;38.81
11395;BME280;5753;54.402;10.220;2023-06-10T06:24:26;102139.19;;;26.45;41.03
11395;BME280;5753;54.402;10.220;2023-06-10T06:26:52;102144.28;;;28.12;39.20
11395;BME280;5753;54.402;10.220;2023-06-10T06:29:18;102138.16;;;26.19;41.34
11395;BME280;5753;54.402;10.220;2023-06-10T06:31:45;102142.22;;;26.31;41.30
11395;BME280;5753;54.402;10.220;2023-06-10T06:34:11;102146.31;;;27.81;39.19
11395;BME280;5753;54.402;10.220;2023-06-10T06:36:37;102144.38;;;25.86;41.82
11395;BME280;5753;54.402;10.220;2023-06-10T06:39:03;102136.88;;;26.03;41.45
11395;BME280;5753;54.402;10.220;2023-06-10T06:41:29;102137.38;;;27.06;40.23
11395;BME280;5753;54.402;10.220;2023-06-10T06:43:55;102137.31;;;26.48;41.02
11395;BME280;5753;54.402;10.220;2023-06-10T06:46:21;102134.19;;;28.24;38.72
11395;BME280;5753;54.402;10.220;2023-06-10T06:48:48;102139.34;;;26.70;40.72
11395;BME280;5753;54.402;10.220;2023-06-10T06:51:14;102130.84;;;27.42;39.98
11395;BME280;5753;54.402;10.220;2023-06-10T06:53:40;102135.50;;;26.80;40.88
11395;BME280;5753;54.402;10.220;2023-06-10T06:56:13;102139.72;;;27.68;39.29
11395;BME280;5753;54.402;10.220;2023-06-10T06:58:39;102139.28;;;28.05;38.37
11395;BME280;5753;54.402;10.220;2023-06-10T07:01:05;102142.38;;;27.68;39.77
11395;BME280;5753;54.402;10.220;2023-06-10T07:03:31;102136.00;;;26.02;42.29
11395;BME280;5753;54.402;10.220;2023-06-10T07:05:58;102148.66;;;25.90;41.96
11395;BME280;5753;54.402;10.220;2023-06-10T07:08:24;102151.41;;;27.34;38.87
11395;BME280;5753;54.402;10.220;2023-06-10T07:10:50;102140.81;;;27.08;39.74
11395;BME280;5753;54.402;10.220;2023-06-10T07:13:16;102148.78;;;28.59;38.06
11395;BME280;5753;54.402;10.220;2023-06-10T07:15:42;102149.09;;;27.51;39.47
11395;BME280;5753;54.402;10.220;2023-06-10T07:18:08;102153.34;;;27.55;39.80
11395;BME280;5753;54.402;10.220;2023-06-10T07:20:34;102150.78;;;29.83;36.09
11395;BME280;5753;54.402;10.220;2023-06-10T07:23:01;102154.75;;;29.53;36.34
11395;BME280;5753;54.402;10.220;2023-06-10T07:25:30;102148.03;;;27.82;38.63
11395;BME280;5753;54.402;10.220;2023-06-10T07:27:57;102156.00;;;26.11;41.59
11395;BME280;5753;54.402;10.220;2023-06-10T07:30:23;102158.38;;;27.10;40.04
11395;BME280;5753;54.402;10.220;2023-06-10T07:32:49;102151.09;;;25.97;41.99
11395;BME280;5753;54.402;10.220;2023-06-10T07:35:20;102157.91;;;27.52;39.26
11395;BME280;5753;54.402;10.220;2023-06-10T07:37:46;102158.75;;;28.29;38.07
11395;BME280;5753;54.402;10.220;2023-06-10T07:40:12;102169.50;;;28.49;37.33
11395;BME280;5753;54.402;10.220;2023-06-10T07:42:38;102154.00;;;28.37;37.76
11395;BME280;5753;54.402;10.220;2023-06-10T07:45:05;102162.44;;;26.02;41.61
11395;BME280;5753;54.402;10.220;2023-06-10T07:47:33;102166.44;;;28.11;38.66
11395;BME280;5753;54.402;10.220;2023-06-10T07:50:00;102170.28;;;28.03;38.54
11395;BME280;5753;54.402;10.220;2023-06-10T07:52:26;102173.34;;;27.66;38.70
11395;BME280;5753;54.402;10.220;2023-06-10T07:54:52;102171.13;;;26.96;40.21
11395;BME280;5753;54.402;10.220;2023-06-10T07:57:19;102176.66;;;26.88;39.92
11395;BME280;5753;54.402;10.220;2023-06-10T07:59:46;102169.75;;;25.91;42.06
11395;BME280;5753;54.402;10.220;2023-06-10T08:02:12;102160.97;;;28.41;37.99
11395;BME280;5753;54.402;10.220;2023-06-10T08:04:38;102169.88;;;28.13;37.73
11395;BME280;5753;54.402;10.220;2023-06-10T08:07:04;102172.03;;;29.19;36.68
11395;BME280;5753;54.402;10.220;2023-06-10T08:09:30;102169.00;;;29.28;36.44
11395;BME280;5753;54.402;10.220;2023-06-10T08:11:56;102164.97;;;27.78;39.22
11395;BME280;5753;54.402;10.220;2023-06-10T08:14:22;102168.31;;;28.08;37.95
11395;BME280;5753;54.402;10.220;2023-06-10T08:16:48;102167.81;;;26.61;40.74
11395;BME280;5753;54.402;10.220;2023-06-10T08:19:15;102171.41;;;29.56;36.30
11395;BME280;5753;54.402;10.220;2023-06-10T08:21:41;102173.47;;;28.82;37.40
11395;BME280;5753;54.402;10.220;2023-06-10T08:24:08;102164.38;;;29.55;36.47
11395;BME280;5753;54.402;10.220;2023-06-10T08:26:34;102169.97;;;29.90;36.12
11395;BME280;5753;54.402;10.220;2023-06-10T08:29:00;102165.03;;;30.60;34.79
11395;BME280;5753;54.402;10.220;2023-06-10T08:31:27;102169.53;;;29.80;35.56
11395;BME280;5753;54.402;10.220;2023-06-10T08:33:53;102169.28;;;30.83;34.27
11395;BME280;5753;54.402;10.220;2023-06-10T08:36:19;102174.91;;;28.93;36.50
11395;BME280;5753;54.402;10.220;2023-06-10T08:38:45;102181.53;;;28.58;36.62
11395;BME280;5753;54.402;10.220;2023-06-10T08:41:14;102178.13;;;28.06;38.17
11395;BME280;5753;54.402;10.220;2023-06-10T08:43:59;102172.88;;;26.38;41.13
11395;BME280;5753;54.402;10.220;2023-06-10T08:46:31;102170.50;;;29.35;37.17
11395;BME280;5753;54.402;10.220;2023-06-10T08:49:02;102174.91;;;28.93;37.12
11395;BME280;5753;54.402;10.220;2023-06-10T08:51:29;102180.47;;;27.09;39.58
11395;BME280;5753;54.402;10.220;2023-06-10T08:54:10;102173.72;;;27.80;38.72
11395;BME280;5753;54.402;10.220;2023-06-10T08:56:39;102184.16;;;26.74;40.48
11395;BME280;5753;54.402;10.220;2023-06-10T08:59:06;102179.13;;;30.23;36.18
11395;BME280;5753;54.402;10.220;2023-06-10T09:01:33;102179.72;;;29.69;36.27
11395;BME280;5753;54.402;10.220;2023-06-10T09:04:00;102176.94;;;29.72;36.36
11395;BME280;5753;54.402;10.220;2023-06-10T09:06:28;102166.50;;;30.47;35.00
11395;BME280;5753;54.402;10.220;2023-06-10T09:08:54;102174.50;;;30.47;34.98
11395;BME280;5753;54.402;10.220;2023-06-10T09:11:24;102169.84;;;30.90;34.41
11395;BME280;5753;54.402;10.220;2023-06-10T09:13:51;102175.75;;;30.78;34.38
11395;BME280;5753;54.402;10.220;2023-06-10T09:16:20;102171.25;;;29.17;36.14
11395;BME280;5753;54.402;10.220;2023-06-10T09:18:46;102162.97;;;27.58;38.45
11395;BME280;5753;54.402;10.220;2023-06-10T09:21:12;102168.31;;;27.83;38.47
11395;BME280;5753;54.402;10.220;2023-06-10T09:23:38;102170.22;;;28.04;38.07
11395;BME280;5753;54.402;10.220;2023-06-10T09:26:08;102168.44;;;28.05;38.34
11395;BME280;5753;54.402;10.220;2023-06-10T09:28:36;102174.53;;;28.78;37.10
11395;BME280;5753;54.402;10.220;2023-06-10T09:31:05;102167.13;;;28.16;39.28
11395;BME280;5753;54.402;10.220;2023-06-10T09:33:33;102161.09;;;27.35;39.02
11395;BME280;5753;54.402;10.220;2023-06-10T09:36:09;102170.94;;;29.47;36.40
11395;BME280;5753;54.402;10.220;2023-06-10T09:38:35;102165.47;;;28.84;37.25
11395;BME280;5753;54.402;10.220;2023-06-10T09:41:03;102166.00;;;28.70;37.77
11395;BME280;5753;54.402;10.220;2023-06-10T09:43:45;102172.28;;;29.77;36.09
11395;BME280;5753;54.402;10.220;2023-06-10T09:46:21;102163.94;;;27.82;39.79
11395;BME280;5753;54.402;10.220;2023-06-10T09:49:05;102164.03;;;28.99;37.67
11395;BME280;5753;54.402;10.220;2023-06-10T09:51:31;102168.00;;;28.42;38.16
11395;BME280;5753;54.402;10.220;2023-06-10T09:53:59;102160.72;;;29.58;37.09
11395;BME280;5753;54.402;10.220;2023-06-10T09:56:35;102161.66;;;29.77;36.58
11395;BME280;5753;54.402;10.220;2023-06-10T09:59:02;102165.47;;;28.39;38.49
11395;BME280;5753;54.402;10.220;2023-06-10T10:01:31;102157.81;;;29.43;36.49
11395;BME280;5753;54.402;10.220;2023-06-10T10:03:57;102165.41;;;31.08;35.84
11395;BME280;5753;54.402;10.220;2023-06-10T10:06:23;102169.03;;;29.70;35.89
11395;BME280;5753;54.402;10.220;2023-06-10T10:08:51;102162.53;;;29.57;36.43
11395;BME280;5753;54.402;10.220;2023-06-10T10:11:18;102174.00;;;29.58;36.58
11395;BME280;5753;54.402;10.220;2023-06-10T10:13:50;102169.97;;;29.05;36.96
11395;BME280;5753;54.402;10.220;2023-06-10T10:16:33;102168.03;;;30.90;34.78
11395;BME280;5753;54.402;10.220;2023-06-10T10:19:08;102180.03;;;29.83;36.36
11395;BME280;5753;54.402;10.220;2023-06-10T10:21:40;102175.75;;;29.59;36.35
11395;BME280;5753;54.402;10.220;2023-06-10T10:24:19;102179.28;;;32.02;33.48
11395;BME280;5753;54.402;10.220;2023-06-10T10:26:48;102173.13;;;30.57;35.17
11395;BME280;5753;54.402;10.220;2023-06-10T10:29:27;102171.56;;;29.94;35.98
11395;BME280;5753;54.402;10.220;2023-06-10T10:31:56;102171.91;;;30.06;35.61
11395;BME280;5753;54.402;10.220;2023-06-10T10:37:10;102176.13;;;29.70;36.83
11395;BME280;5753;54.402;10.220;2023-06-10T10:39:37;102182.19;;;29.09;37.34
11395;BME280;5753;54.402;10.220;2023-06-10T10:42:04;102166.72;;;30.03;35.72
11395;BME280;5753;54.402;10.220;2023-06-10T10:44:32;102176.13;;;29.70;36.44
11395;BME280;5753;54.402;10.220;2023-06-10T10:47:02;102172.22;;;28.69;38.05
11395;BME280;5753;54.402;10.220;2023-06-10T10:49:30;102171.84;;;30.47;35.54
11395;BME280;5753;54.402;10.220;2023-06-10T10:51:59;102181.31;;;28.15;38.25
11395;BME280;5753;54.402;10.220;2023-06-10T10:54:33;102178.00;;;31.76;33.78
11395;BME280;5753;54.402;10.220;2023-06-10T10:57:23;102177.72;;;31.10;34.48
11395;BME280;5753;54.402;10.220;2023-06-10T11:02:18;102185.97;;;32.44;32.22
11395;BME280;5753;54.402;10.220;2023-06-10T11:04:48;102175.34;;;31.04;34.41
11395;BME280;5753;54.402;10.220;2023-06-10T11:07:15;102180.47;;;29.08;36.65
11395;BME280;5753;54.402;10.220;2023-06-10T11:10:12;102184.28;;;30.28;35.50
11395;BME280;5753;54.402;10.220;2023-06-10T11:15:18;102179.75;;;31.05;35.31
11395;BME280;5753;54.402;10.220;2023-06-10T11:18:07;102179.88;;;31.91;33.35
11395;BME280;5753;54.402;10.220;2023-06-10T11:23:38;102179.13;;;30.23;35.22
11395;BME280;5753;54.402;10.220;2023-06-10T11:26:14;102186.97;;;31.22;34.05
11395;BME280;5753;54.402;10.220;2023-06-10T11:28:43;102187.63;;;30.70;33.74
11395;BME280;5753;54.402;10.220;2023-06-10T11:33:58;102189.72;;;31.55;33.96
11395;BME280;5753;54.402;10.220;2023-06-10T11:36:28;102179.63;;;29.28;36.68
11395;BME280;5753;54.402;10.220;2023-06-10T11:39:01;102172.56;;;30.69;34.66
11395;BME280;5753;54.402;10.220;2023-06-10T11:41:30;102179.38;;;30.77;34.85
11395;BME280;5753;54.402;10.220;2023-06-10T11:44:01;102171.28;;;30.59;34.29
11395;BME280;5753;54.402;10.220;2023-06-10T11:46:27;102179.19;;;29.61;36.51
11395;BME280;5753;54.402;10.220;2023-06-10T11:48:55;102170.09;;;31.21;34.57
11395;BME280;5753;54.402;10.220;2023-06-10T11:51:26;102175.09;;;32.14;33.10
11395;BME280;5753;54.402;10.220;2023-06-10T11:53:53;102167.34;;;34.25;30.63
11395;BME280;5753;54.402;10.220;2023-06-10T11:56:26;102169.75;;;35.91;28.08
11395;BME280;5753;54.402;10.220;2023-06-10T11:59:11;102168.22;;;34.12;29.43
11395;BME280;5753;54.402;10.220;2023-06-10T12:01:42;102173.72;;;30.64;33.93
11395;BME280;5753;54.402;10.220;2023-06-10T12:04:10;102171.47;;;33.12;31.44
11395;BME280;5753;54.402;10.220;2023-06-10T12:06:44;102166.69;;;32.54;31.71
11395;BME280;5753;54.402;10.220;2023-06-10T12:09:20;102170.22;;;34.51;29.15
11395;BME280;5753;54.402;10.220;2023-06-10T12:11:49;102158.41;;;33.38;30.58
11395;BME280;5753;54.402;10.220;2023-06-10T12:14:16;102162.91;;;31.41;33.25
11395;BME280;5753;54.402;10.220;2023-06-10T12:19:52;102151.69;;;35.81;27.83
11395;BME280;5753;54.402;10.220;2023-06-10T12:22:21;102157.38;;;33.99;30.05
11395;BME280;5753;54.402;10.220;2023-06-10T12:25:06;102164.91;;;33.18;31.20
11395;BME280;5753;54.402;10.220;2023-06-10T12:27:33;102167.91;;;37.40;26.41
11395;BME280;5753;54.402;10.220;2023-06-10T12:30:00;102157.50;;;36.51;26.89
11395;BME280;5753;54.402;10.220;2023-06-10T12:32:39;102167.94;;;36.79;25.96
11395;BME280;5753;54.402;10.220;2023-06-10T12:35:07;102152.13;;;33.53;29.77
11395;BME280;5753;54.402;10.220;2023-06-10T12:37:34;102168.22;;;34.54;29.54
11395;BME280;5753;54.402;10.220;2023-06-10T12:40:01;102167.41;;;36.12;27.05
11395;BME280;5753;54.402;10.220;2023-06-10T12:42:29;102158.22;;;34.70;28.21
11395;BME280;5753;54.402;10.220;2023-06-10T12:44:56;102154.34;;;35.95;26.75
11395;BME280;5753;54.402;10.220;2023-06-10T12:47:33;102152.25;;;36.11;26.49
11395;BME280;5753;54.402;10.220;2023-06-10T12:50:05;102146.88;;;37.21;25.11
11395;BME280;5753;54.402;10.220;2023-06-10T12:52:32;102151.03;;;36.41;26.18
11395;BME280;5753;54.402;10.220;2023-06-10T12:54:58;102151.94;;;37.02;25.39
11395;BME280;5753;54.402;10.220;2023-06-10T12:57:25;102153.97;;;37.22;25.40
11395;BME280;5753;54.402;10.220;2023-06-10T12:59:51;102144.94;;;37.58;24.90
11395;BME280;5753;54.402;10.220;2023-06-10T13:02:23;102150.47;;;37.33;25.61
11395;BME280;5753;54.402;10.220;2023-06-10T13:04:52;102145.38;;;35.17;27.35
11395;BME280;5753;54.402;10.220;2023-06-10T13:07:19;102148.69;;;39.01;24.19
11395;BME280;5753;54.402;10.220;2023-06-10T13:09:45;102145.19;;;36.10;26.58
11395;BME280;5753;54.402;10.220;2023-06-10T13:12:14;102143.97;;;35.11;27.73
11395;BME280;5753;54.402;10.220;2023-06-10T13:14:40;102148.81;;;36.35;26.69
11395;BME280;5753;54.402;10.220;2023-06-10T13:17:07;102140.84;;;38.10;25.38